Time;durP1;ratioP1;P1;durP2;ratioP2;P2;SDS_P1;SDS_P2;PMS_P1;PMS_P2;Temp;Humidity;BMP_temperature;BMP_pressure;BME280_temperature;BME280_humidity;BME280_pressure;Samples;Min_cycle;Max_cycle;Signal;HPM_P1;HPM_P2
2021/12/10 00:00:39;;;;;;;11.17;5.60;;;3.90;99.90;;;;;;5071932;28;20268;-66
2021/12/10 00:03:10;;;;;;;9.50;5.43;;;3.80;99.90;;;;;;5071711;28;20217;-65
2021/12/10 00:05:41;;;;;;;10.27;5.17;;;3.80;99.90;;;;;;5061314;28;20241;-66
2021/12/10 00:08:10;;;;;;;10.33;5.57;;;3.80;99.90;;;;;;5072630;28;20198;-66
2021/12/10 00:10:41;;;;;;;8.13;5.47;;;3.70;99.90;;;;;;5072508;28;20541;-66
2021/12/10 00:13:09;;;;;;;9.57;4.97;;;3.70;99.90;;;;;;5071520;28;20645;-65
2021/12/10 00:15:39;;;;;;;11.43;5.90;;;3.70;99.90;;;;;;5071955;28;20252;-66
2021/12/10 00:18:09;;;;;;;10.83;6.20;;;3.70;99.90;;;;;;5072521;28;20212;-65
2021/12/10 00:20:40;;;;;;;9.27;6.33;;;3.80;99.90;;;;;;5071684;28;20218;-66
2021/12/10 00:23:12;;;;;;;9.47;6.33;;;3.90;99.90;;;;;;5071879;28;20198;-65
2021/12/10 00:25:41;;;;;;;12.17;6.17;;;3.80;99.90;;;;;;5071420;28;20205;-66
2021/12/10 00:28:15;;;;;;;9.20;6.10;;;3.80;99.90;;;;;;5071729;28;20202;-66
2021/12/10 00:30:58;;;;;;;12.47;6.57;;;3.90;99.90;;;;;;5070890;28;20794;-65
2021/12/10 00:33:26;;;;;;;12.50;6.47;;;3.90;99.90;;;;;;5071858;28;20719;-65
2021/12/10 00:35:55;;;;;;;13.37;6.87;;;3.90;99.90;;;;;;5071612;28;20612;-66
2021/12/10 00:38:23;;;;;;;12.00;6.63;;;3.90;99.90;;;;;;5071614;28;20190;-65
2021/12/10 00:40:51;;;;;;;12.00;6.60;;;3.80;99.90;;;;;;5071879;28;20244;-65
2021/12/10 00:43:19;;;;;;;9.73;5.90;;;3.80;99.90;;;;;;5071299;28;20252;-65
2021/12/10 00:45:47;;;;;;;8.30;5.90;;;3.80;99.90;;;;;;5071841;28;20633;-66
2021/12/10 00:48:14;;;;;;;11.07;6.33;;;3.80;99.90;;;;;;5072122;28;20251;-65
2021/12/10 00:50:44;;;;;;;11.97;7.03;;;3.80;99.90;;;;;;5071706;28;20202;-65
2021/12/10 00:53:13;;;;;;;11.87;6.17;;;3.80;99.90;;;;;;5070935;28;20199;-66
2021/12/10 00:55:40;;;;;;;10.27;6.67;;;3.90;99.90;;;;;;5077459;28;20252;-68
2021/12/10 00:58:07;;;;;;;10.87;6.57;;;3.80;99.90;;;;;;5074249;28;20198;-67
2021/12/10 01:00:38;;;;;;;12.33;6.10;;;3.80;99.90;;;;;;5079245;28;20222;-67
2021/12/10 01:03:09;;;;;;;10.53;5.90;;;3.90;99.90;;;;;;5071490;28;20202;-67
2021/12/10 01:05:38;;;;;;;11.13;6.50;;;3.90;99.90;;;;;;5070475;28;20201;-68
2021/12/10 01:08:06;;;;;;;11.03;6.17;;;3.90;99.90;;;;;;5078886;28;20210;-67
2021/12/10 01:10:38;;;;;;;10.73;5.50;;;3.80;99.90;;;;;;5070971;28;20717;-68
2021/12/10 01:13:11;;;;;;;10.20;5.93;;;3.80;99.90;;;;;;5060826;28;20203;-67
2021/12/10 01:15:51;;;;;;;9.77;6.23;;;3.90;99.90;;;;;;5050026;28;20618;-67
2021/12/10 01:23:58;;;;;;;9.93;6.07;;;3.80;99.90;;;;;;5065889;28;20251;-68
2021/12/10 01:26:53;;;;;;;12.17;6.47;;;3.70;99.90;;;;;;5069923;28;20256;-67
2021/12/10 01:29:25;;;;;;;12.80;6.50;;;3.70;99.90;;;;;;5056166;28;20209;-67
2021/12/10 01:31:53;;;;;;;10.83;6.60;;;3.80;99.90;;;;;;5070736;28;20202;-67
2021/12/10 01:34:23;;;;;;;10.40;6.03;;;3.80;99.90;;;;;;5065285;28;20199;-67
2021/12/10 01:36:50;;;;;;;11.03;6.23;;;3.90;99.90;;;;;;5055288;28;20210;-67
2021/12/10 01:39:20;;;;;;;12.13;6.07;;;3.80;99.90;;;;;;5056451;28;20221;-67
2021/12/10 01:41:58;;;;;;;10.67;5.90;;;3.80;99.90;;;;;;5050534;28;20259;-67
2021/12/10 01:44:30;;;;;;;12.60;6.17;;;3.80;99.90;;;;;;5067160;28;20269;-68
2021/12/10 01:47:00;;;;;;;11.10;6.73;;;3.80;99.90;;;;;;5052879;28;20206;-67
2021/12/10 01:49:29;;;;;;;11.20;6.10;;;3.80;99.90;;;;;;5070486;28;20665;-67
2021/12/10 01:51:59;;;;;;;11.93;6.50;;;3.70;99.90;;;;;;5072965;28;20292;-67
2021/12/10 01:54:29;;;;;;;10.80;6.50;;;3.80;99.90;;;;;;5072035;28;20195;-68
2021/12/10 01:56:59;;;;;;;13.13;7.40;;;3.70;99.90;;;;;;5076019;28;20207;-67
2021/12/10 01:59:28;;;;;;;13.93;6.70;;;3.60;99.90;;;;;;5079242;28;20234;-67
2021/12/10 02:02:01;;;;;;;9.23;6.30;;;3.60;99.90;;;;;;5080984;28;20201;-67
2021/12/10 02:04:33;;;;;;;11.83;6.63;;;3.60;99.90;;;;;;5076801;28;20246;-67
2021/12/10 02:07:01;;;;;;;11.43;6.47;;;3.50;99.90;;;;;;5084415;28;20255;-68
2021/12/10 02:09:29;;;;;;;12.93;6.87;;;3.50;99.90;;;;;;5091022;28;20197;-68
2021/12/10 02:11:56;;;;;;;11.33;6.13;;;3.50;99.90;;;;;;5075527;28;20548;-67
2021/12/10 02:14:23;;;;;;;12.57;6.40;;;3.50;99.90;;;;;;5062047;28;20616;-68
2021/12/10 02:16:55;;;;;;;10.90;6.30;;;3.50;99.90;;;;;;5055733;28;20211;-67
2021/12/10 02:19:22;;;;;;;11.77;6.47;;;3.50;99.90;;;;;;5071010;28;20202;-68
2021/12/10 02:21:51;;;;;;;10.80;6.70;;;3.50;99.90;;;;;;5063440;28;20206;-67
2021/12/10 02:24:20;;;;;;;10.50;6.17;;;3.60;99.90;;;;;;5070503;28;20240;-68
2021/12/10 02:26:51;;;;;;;12.87;6.57;;;3.60;99.90;;;;;;5071141;28;20211;-68
2021/12/10 02:29:21;;;;;;;10.90;6.53;;;3.60;99.90;;;;;;5069883;28;20195;-67
2021/12/10 02:31:48;;;;;;;12.10;7.07;;;3.60;99.90;;;;;;5070154;28;20714;-67
2021/12/10 02:34:15;;;;;;;10.57;6.33;;;3.60;99.90;;;;;;5057801;28;20199;-68
2021/12/10 02:36:42;;;;;;;11.33;5.90;;;3.60;99.90;;;;;;5048532;28;20195;-67
2021/12/10 02:39:12;;;;;;;10.67;6.10;;;3.70;99.90;;;;;;5066671;28;20648;-67
2021/12/10 02:41:40;;;;;;;11.53;6.30;;;3.70;99.90;;;;;;5072247;28;20272;-67
2021/12/10 02:44:10;;;;;;;13.43;6.80;;;3.70;99.90;;;;;;5077359;28;20198;-67
2021/12/10 02:46:39;;;;;;;11.70;7.00;;;3.60;99.90;;;;;;5068957;28;20241;-67
2021/12/10 02:49:08;;;;;;;13.07;6.37;;;3.70;99.90;;;;;;5070854;28;20202;-68
2021/12/10 02:51:36;;;;;;;13.37;7.30;;;3.70;99.90;;;;;;5072414;28;20648;-67
2021/12/10 02:54:05;;;;;;;12.23;7.03;;;3.80;99.90;;;;;;5074090;28;20306;-68
2021/12/10 02:56:34;;;;;;;15.53;7.33;;;3.80;99.90;;;;;;5071886;28;20195;-68
2021/12/10 02:59:02;;;;;;;11.33;7.00;;;3.80;99.90;;;;;;5086651;28;20553;-68
2021/12/10 03:01:33;;;;;;;12.07;6.77;;;3.80;99.90;;;;;;5072456;28;20214;-68
2021/12/10 03:04:01;;;;;;;13.50;7.00;;;3.90;99.90;;;;;;5086055;28;20198;-67
2021/12/10 03:06:29;;;;;;;14.47;7.43;;;3.90;99.90;;;;;;5073025;28;20198;-67
2021/12/10 03:08:57;;;;;;;13.23;6.77;;;3.90;99.90;;;;;;5080944;28;20250;-67
2021/12/10 03:11:26;;;;;;;13.43;7.63;;;3.80;99.90;;;;;;5071095;28;20194;-67
2021/12/10 03:13:57;;;;;;;13.97;7.17;;;3.80;99.90;;;;;;5074518;28;20230;-68
2021/12/10 03:16:24;;;;;;;12.50;7.30;;;3.70;99.90;;;;;;5084096;28;20210;-68
2021/12/10 03:18:52;;;;;;;13.63;7.40;;;3.70;99.90;;;;;;5088521;28;20612;-67
2021/12/10 03:21:19;;;;;;;14.20;7.97;;;3.70;99.90;;;;;;5071696;28;20222;-67
2021/12/10 03:23:48;;;;;;;13.90;8.00;;;3.70;99.90;;;;;;5081750;28;20215;-67
2021/12/10 03:26:18;;;;;;;13.93;7.53;;;3.70;99.90;;;;;;5072622;28;20615;-67
2021/12/10 03:28:48;;;;;;;13.87;7.60;;;3.80;99.90;;;;;;5065882;28;20271;-67
2021/12/10 03:31:19;;;;;;;13.13;7.27;;;3.80;99.90;;;;;;5083104;28;20214;-67
2021/12/10 03:33:47;;;;;;;15.43;7.40;;;3.80;99.90;;;;;;5071662;28;20710;-67
2021/12/10 03:36:15;;;;;;;13.93;7.93;;;3.70;99.90;;;;;;5072328;28;20195;-67
2021/12/10 03:38:43;;;;;;;15.27;7.37;;;3.70;99.90;;;;;;5073366;28;20210;-67
2021/12/10 03:41:11;;;;;;;16.93;8.10;;;3.80;99.90;;;;;;5071180;28;20291;-68
2021/12/10 03:43:41;;;;;;;18.63;8.37;;;3.80;99.90;;;;;;5057105;28;20252;-67
2021/12/10 03:46:10;;;;;;;14.83;7.70;;;3.80;99.90;;;;;;5059281;28;20251;-67
2021/12/10 03:48:42;;;;;;;15.93;8.00;;;3.80;99.90;;;;;;5079775;28;20253;-67
2021/12/10 03:51:14;;;;;;;16.43;7.83;;;3.80;99.90;;;;;;5070676;28;20198;-67
2021/12/10 03:53:41;;;;;;;13.83;6.93;;;3.80;99.90;;;;;;5073889;28;20206;-67
2021/12/10 03:56:13;;;;;;;13.93;7.80;;;3.80;99.90;;;;;;5070305;28;20593;-67
2021/12/10 03:58:41;;;;;;;15.50;7.87;;;3.80;99.90;;;;;;5072981;28;20229;-68
2021/12/10 04:01:11;;;;;;;12.43;6.67;;;3.80;99.90;;;;;;5069817;28;20252;-67
2021/12/10 04:03:42;;;;;;;15.57;8.10;;;3.80;99.90;;;;;;5071104;28;20202;-67
2021/12/10 04:06:09;;;;;;;15.33;7.60;;;3.80;99.90;;;;;;5071323;28;20194;-67
2021/12/10 04:08:36;;;;;;;11.83;6.77;;;3.90;99.90;;;;;;5063307;28;20199;-67
2021/12/10 04:11:06;;;;;;;12.70;6.83;;;3.90;99.90;;;;;;5052123;28;20275;-68
2021/12/10 04:13:33;;;;;;;11.53;6.83;;;3.90;99.90;;;;;;5069678;28;20248;-67
2021/12/10 04:16:00;;;;;;;14.73;7.70;;;3.90;99.90;;;;;;5089708;28;20205;-67
2021/12/10 04:18:27;;;;;;;14.20;8.00;;;3.90;99.90;;;;;;5073831;28;20207;-67
2021/12/10 04:20:56;;;;;;;19.03;7.60;;;3.90;99.90;;;;;;5072007;28;20214;-67
2021/12/10 04:23:25;;;;;;;14.57;7.43;;;3.90;99.90;;;;;;5089576;28;20213;-68
2021/12/10 04:25:52;;;;;;;14.70;7.33;;;3.90;99.90;;;;;;5091043;28;20233;-67
2021/12/10 04:28:21;;;;;;;12.13;7.50;;;4.00;99.90;;;;;;5074581;28;20252;-65
2021/12/10 04:30:49;;;;;;;18.07;8.23;;;4.00;99.90;;;;;;5070971;28;20327;-65
2021/12/10 04:33:22;;;;;;;13.53;7.63;;;4.00;99.90;;;;;;5072906;28;20264;-66
2021/12/10 04:35:52;;;;;;;12.93;7.57;;;4.00;99.90;;;;;;5071192;28;20233;-65
2021/12/10 04:38:21;;;;;;;16.50;7.73;;;4.00;99.90;;;;;;5088391;28;20701;-65
2021/12/10 04:40:50;;;;;;;14.30;6.73;;;3.90;99.90;;;;;;5092589;28;20226;-65
2021/12/10 04:43:20;;;;;;;14.33;7.10;;;4.00;99.90;;;;;;5091206;28;20206;-65
2021/12/10 04:45:47;;;;;;;13.20;6.57;;;4.00;99.90;;;;;;5091985;28;20206;-65
2021/12/10 04:48:15;;;;;;;15.00;7.00;;;4.00;99.90;;;;;;5091600;28;20606;-65
2021/12/10 04:50:42;;;;;;;14.43;7.30;;;4.00;99.90;;;;;;5092152;28;20198;-65
2021/12/10 04:53:11;;;;;;;13.77;7.17;;;4.00;99.90;;;;;;5080127;28;20202;-66
2021/12/10 04:55:40;;;;;;;12.87;6.60;;;4.00;99.90;;;;;;5071853;28;20214;-66
2021/12/10 04:58:08;;;;;;;13.50;7.07;;;4.00;99.90;;;;;;5072326;28;20194;-66
2021/12/10 05:00:38;;;;;;;11.20;6.40;;;4.00;99.90;;;;;;5072008;28;20222;-66
2021/12/10 05:03:06;;;;;;;11.80;6.23;;;4.00;99.90;;;;;;5071994;28;20276;-65
2021/12/10 05:05:35;;;;;;;13.53;7.40;;;4.10;99.90;;;;;;5069722;28;20209;-66
2021/12/10 05:08:02;;;;;;;12.53;7.10;;;4.10;99.90;;;;;;5070960;28;20298;-66
2021/12/10 05:10:29;;;;;;;12.10;6.83;;;4.10;99.90;;;;;;5071319;28;20198;-66
2021/12/10 05:12:58;;;;;;;10.37;6.50;;;4.10;99.90;;;;;;5070084;28;20206;-66
2021/12/10 05:15:27;;;;;;;14.10;7.30;;;4.10;99.90;;;;;;5070967;28;20260;-66
2021/12/10 05:17:55;;;;;;;15.63;7.07;;;4.10;99.90;;;;;;5070575;28;20218;-65
2021/12/10 05:20:25;;;;;;;11.23;6.57;;;4.10;99.90;;;;;;5069722;28;20213;-65
2021/12/10 05:22:53;;;;;;;10.60;6.30;;;4.10;99.90;;;;;;5070806;28;20690;-66
2021/12/10 05:25:20;;;;;;;10.87;6.40;;;4.10;99.90;;;;;;5070500;28;20587;-65
2021/12/10 05:27:49;;;;;;;11.87;6.70;;;4.10;99.90;;;;;;5070219;28;20520;-66
2021/12/10 05:30:21;;;;;;;13.80;7.03;;;4.00;99.90;;;;;;5070425;28;20214;-65
2021/12/10 05:32:48;;;;;;;14.10;7.10;;;4.10;99.90;;;;;;5070916;28;20259;-65
2021/12/10 05:35:15;;;;;;;11.27;6.53;;;4.00;99.90;;;;;;5070965;28;20206;-66
2021/12/10 05:37:43;;;;;;;13.07;7.33;;;4.00;99.90;;;;;;5071157;28;20661;-65
2021/12/10 05:40:14;;;;;;;11.37;7.03;;;4.10;99.90;;;;;;5071018;28;20202;-65
2021/12/10 05:42:42;;;;;;;12.70;7.07;;;4.00;99.90;;;;;;5069737;28;20226;-66
2021/12/10 05:45:10;;;;;;;12.00;6.90;;;4.00;99.90;;;;;;5070234;28;20198;-66
2021/12/10 05:47:39;;;;;;;12.70;6.80;;;4.10;99.90;;;;;;5069938;28;20284;-65
2021/12/10 05:50:09;;;;;;;13.53;7.53;;;4.00;99.90;;;;;;5071141;28;20604;-66
2021/12/10 05:52:36;;;;;;;11.87;6.63;;;4.10;99.90;;;;;;5069524;28;20214;-66
2021/12/10 05:55:04;;;;;;;12.77;7.27;;;4.00;99.90;;;;;;5070403;28;20194;-66
2021/12/10 05:57:31;;;;;;;10.63;6.23;;;4.10;99.90;;;;;;5069685;28;20203;-65
2021/12/10 05:59:58;;;;;;;12.27;6.83;;;4.10;99.90;;;;;;5071073;28;20187;-66
2021/12/10 06:02:25;;;;;;;15.07;7.03;;;4.10;99.90;;;;;;5088812;28;20274;-65
2021/12/10 06:04:53;;;;;;;13.43;7.10;;;4.10;99.90;;;;;;5089584;28;20267;-66
2021/12/10 06:07:21;;;;;;;14.33;6.70;;;4.10;99.90;;;;;;5090393;28;20209;-65
2021/12/10 06:09:48;;;;;;;13.93;7.27;;;4.10;99.90;;;;;;5090100;28;20201;-66
2021/12/10 06:12:15;;;;;;;14.60;7.07;;;4.10;99.90;;;;;;5089023;28;20718;-66
2021/12/10 06:14:42;;;;;;;10.90;6.00;;;4.10;99.90;;;;;;5091001;28;20275;-66
2021/12/10 06:17:09;;;;;;;11.77;6.77;;;4.10;99.90;;;;;;5089871;28;20214;-66
2021/12/10 06:19:36;;;;;;;13.50;7.17;;;4.10;99.90;;;;;;5090922;28;20232;-66
2021/12/10 06:22:05;;;;;;;11.50;6.67;;;4.10;99.90;;;;;;5089556;28;20265;-66
2021/12/10 06:24:32;;;;;;;11.90;6.67;;;4.10;99.90;;;;;;5092033;28;20592;-66
2021/12/10 06:27:00;;;;;;;11.40;6.07;;;4.20;99.90;;;;;;5092711;28;20712;-66
2021/12/10 06:29:27;;;;;;;14.00;7.40;;;4.20;99.90;;;;;;5094786;28;20209;-66
2021/12/10 06:31:56;;;;;;;11.83;6.87;;;4.20;99.90;;;;;;5094168;28;20197;-66
2021/12/10 06:34:23;;;;;;;13.10;7.03;;;4.10;99.90;;;;;;5093219;28;20644;-66
2021/12/10 06:36:51;;;;;;;14.60;7.23;;;4.10;99.90;;;;;;5093924;28;20233;-66
2021/12/10 06:39:20;;;;;;;12.07;6.50;;;4.10;99.90;;;;;;5094866;28;20239;-66
2021/12/10 06:41:49;;;;;;;13.40;7.23;;;4.10;99.90;;;;;;5092053;28;20222;-66
2021/12/10 06:44:16;;;;;;;11.57;6.30;;;4.10;99.90;;;;;;5094655;28;20197;-66
2021/12/10 06:46:44;;;;;;;15.77;8.23;;;4.10;99.90;;;;;;5093221;28;20702;-66
2021/12/10 06:49:12;;;;;;;14.13;7.27;;;4.10;99.90;;;;;;5092831;28;20212;-66
2021/12/10 06:51:39;;;;;;;11.67;6.43;;;4.10;99.90;;;;;;5079388;28;20230;-66
2021/12/10 06:54:07;;;;;;;14.37;7.33;;;4.20;99.90;;;;;;5075314;28;20263;-66
2021/12/10 06:56:36;;;;;;;12.47;6.93;;;4.20;99.90;;;;;;5087781;28;20202;-65
2021/12/10 06:59:05;;;;;;;13.63;7.47;;;4.20;99.90;;;;;;5078684;28;20672;-66
2021/12/10 07:01:34;;;;;;;13.87;6.77;;;4.20;99.90;;;;;;5075573;28;20231;-66
2021/12/10 07:04:04;;;;;;;14.40;7.20;;;4.20;99.90;;;;;;5076506;28;20206;-66
2021/12/10 07:06:33;;;;;;;11.27;6.83;;;4.20;99.90;;;;;;5077682;28;20237;-66
2021/12/10 07:09:01;;;;;;;14.03;7.97;;;4.20;99.90;;;;;;5079436;28;20267;-66
2021/12/10 07:11:28;;;;;;;14.30;7.50;;;4.30;99.90;;;;;;5074108;28;20660;-66
2021/12/10 07:13:58;;;;;;;17.53;8.13;;;4.20;99.90;;;;;;5076236;28;20244;-66
2021/12/10 07:16:27;;;;;;;11.67;7.10;;;4.20;99.90;;;;;;5080337;28;20211;-66
2021/12/10 07:18:55;;;;;;;18.00;7.40;;;4.20;99.90;;;;;;5075326;28;20645;-66
2021/12/10 07:21:23;;;;;;;15.10;7.60;;;4.20;99.90;;;;;;5077025;28;20218;-66
2021/12/10 07:23:51;;;;;;;12.80;7.33;;;4.20;99.90;;;;;;5076342;28;20209;-66
2021/12/10 07:26:18;;;;;;;12.07;6.80;;;4.20;99.90;;;;;;5075066;28;20207;-66
2021/12/10 07:28:45;;;;;;;15.20;8.10;;;4.20;99.90;;;;;;5073627;28;20256;-66
2021/12/10 07:31:14;;;;;;;15.23;8.20;;;4.20;99.90;;;;;;5081186;28;20243;-66
2021/12/10 07:33:42;;;;;;;15.37;7.77;;;4.20;99.90;;;;;;5075332;28;20260;-66
2021/12/10 07:36:10;;;;;;;14.57;8.03;;;4.10;99.90;;;;;;5076304;28;20225;-66
2021/12/10 07:38:37;;;;;;;16.27;8.17;;;4.20;99.90;;;;;;5080433;28;20198;-66
2021/12/10 07:41:06;;;;;;;16.30;8.30;;;4.20;99.90;;;;;;5080999;28;20641;-66
2021/12/10 07:43:34;;;;;;;13.47;8.20;;;4.20;99.90;;;;;;5075068;28;20636;-66
2021/12/10 07:46:01;;;;;;;20.00;9.87;;;4.20;99.90;;;;;;5076486;28;20271;-66
2021/12/10 07:48:29;;;;;;;17.27;9.07;;;4.20;99.90;;;;;;5079951;28;20260;-66
2021/12/10 07:51:00;;;;;;;15.80;9.07;;;4.20;99.90;;;;;;5074691;28;20202;-66
2021/12/10 07:53:29;;;;;;;15.20;7.90;;;4.20;99.90;;;;;;5072142;28;20198;-66
2021/12/10 07:55:58;;;;;;;16.03;7.90;;;4.20;99.90;;;;;;5074263;28;20247;-66
2021/12/10 07:58:26;;;;;;;12.00;6.87;;;4.20;99.90;;;;;;5075200;28;20615;-66
2021/12/10 08:00:53;;;;;;;12.50;6.67;;;4.30;99.90;;;;;;5074217;28;20255;-65
2021/12/10 08:03:21;;;;;;;10.53;6.63;;;4.30;99.90;;;;;;5075862;28;20232;-65
2021/12/10 08:05:51;;;;;;;12.57;6.20;;;4.30;99.90;;;;;;5075259;28;20210;-69
2021/12/10 08:08:18;;;;;;;12.10;6.20;;;4.30;99.90;;;;;;5073340;28;20248;-69
2021/12/10 08:10:47;;;;;;;11.07;6.30;;;4.30;99.90;;;;;;5079235;28;20233;-70
2021/12/10 08:13:16;;;;;;;11.27;6.17;;;4.30;99.90;;;;;;5077488;28;20636;-69
2021/12/10 08:15:43;;;;;;;10.57;5.83;;;4.30;99.90;;;;;;5075952;28;20250;-69
2021/12/10 08:18:11;;;;;;;13.63;6.60;;;4.30;99.90;;;;;;5075995;28;20710;-70
2021/12/10 08:20:38;;;;;;;12.73;6.07;;;4.30;99.90;;;;;;5079673;28;20847;-70
2021/12/10 08:23:08;;;;;;;10.47;5.97;;;4.30;99.90;;;;;;5073383;28;20253;-70
2021/12/10 08:25:36;;;;;;;13.30;6.77;;;4.30;99.90;;;;;;5069286;28;20641;-70
2021/12/10 08:28:05;;;;;;;13.27;6.83;;;4.30;99.90;;;;;;5076170;28;20205;-70
2021/12/10 08:30:34;;;;;;;13.33;6.30;;;4.30;99.90;;;;;;5073527;28;20206;-69
2021/12/10 08:33:01;;;;;;;13.87;6.70;;;4.30;99.90;;;;;;5073518;28;20252;-69
2021/12/10 08:35:31;;;;;;;14.67;6.10;;;4.20;99.90;;;;;;5075612;28;20618;-69
2021/12/10 08:38:00;;;;;;;12.17;5.90;;;4.30;99.90;;;;;;5072421;28;20237;-69
2021/12/10 08:40:31;;;;;;;8.77;5.30;;;4.30;99.90;;;;;;5072740;28;20202;-69
2021/12/10 08:42:59;;;;;;;11.67;6.40;;;4.30;99.90;;;;;;5081801;28;20269;-70
2021/12/10 08:45:27;;;;;;;11.77;5.83;;;4.30;99.90;;;;;;5075321;28;20206;-69
2021/12/10 08:47:55;;;;;;;9.20;5.10;;;4.30;99.90;;;;;;5074428;28;20226;-69
2021/12/10 08:50:24;;;;;;;10.90;6.10;;;4.30;99.90;;;;;;5075743;28;20626;-69
2021/12/10 08:52:54;;;;;;;8.93;5.40;;;4.30;99.90;;;;;;5078791;28;20264;-69
2021/12/10 08:55:22;;;;;;;9.33;5.20;;;4.30;99.90;;;;;;5069652;28;20301;-70
2021/12/10 08:57:50;;;;;;;9.23;5.40;;;4.30;99.90;;;;;;5074495;28;20629;-69
2021/12/10 09:00:20;;;;;;;9.43;5.20;;;4.40;99.90;;;;;;5071464;28;20202;-70
2021/12/10 09:02:50;;;;;;;9.30;4.73;;;4.30;99.90;;;;;;5073213;28;20697;-69
2021/12/10 09:05:18;;;;;;;10.27;5.60;;;4.40;99.90;;;;;;5074083;28;20668;-69
2021/12/10 09:07:47;;;;;;;11.70;5.30;;;4.40;99.90;;;;;;5077500;28;20241;-69
2021/12/10 09:10:16;;;;;;;9.80;4.70;;;4.50;99.90;;;;;;5069141;28;20206;-69
2021/12/10 09:12:44;;;;;;;8.83;4.70;;;4.40;99.90;;;;;;5072186;28;20607;-69
2021/12/10 09:15:19;;;;;;;10.23;4.67;;;4.50;99.90;;;;;;5080814;28;20258;-69
2021/12/10 09:17:48;;;;;;;11.40;6.53;;;4.50;99.90;;;;;;5073587;28;20222;-69
2021/12/10 09:20:19;;;;;;;11.00;5.90;;;4.50;99.90;;;;;;5074697;28;20263;-69
2021/12/10 09:22:47;;;;;;;9.90;6.20;;;4.50;99.90;;;;;;5076772;28;20284;-70
2021/12/10 09:25:16;;;;;;;8.63;5.27;;;4.50;99.90;;;;;;5078237;28;20198;-70
2021/12/10 09:27:43;;;;;;;8.97;5.27;;;4.50;99.90;;;;;;5072325;28;20233;-69
2021/12/10 09:30:14;;;;;;;14.60;7.27;;;4.50;99.90;;;;;;5077792;28;20206;-70
2021/12/10 09:32:41;;;;;;;10.30;5.93;;;4.50;99.90;;;;;;5078530;28;20206;-69
2021/12/10 09:35:10;;;;;;;9.80;5.53;;;4.40;99.90;;;;;;5076542;28;20238;-69
2021/12/10 09:37:40;;;;;;;8.50;5.83;;;4.50;99.90;;;;;;5073290;28;20201;-69
2021/12/10 09:40:15;;;;;;;10.47;6.67;;;4.50;99.90;;;;;;5074917;28;20210;-69
2021/12/10 09:42:42;;;;;;;9.53;5.70;;;4.50;99.90;;;;;;5072690;28;20259;-70
2021/12/10 09:45:12;;;;;;;9.63;5.77;;;4.60;99.90;;;;;;5076101;28;20202;-69
2021/12/10 09:47:40;;;;;;;10.77;5.70;;;4.60;99.90;;;;;;5081881;28;20258;-71
2021/12/10 09:50:10;;;;;;;9.50;5.77;;;4.60;99.90;;;;;;5072516;28;20208;-70
2021/12/10 09:52:38;;;;;;;9.50;5.83;;;4.60;99.90;;;;;;5072563;28;20288;-69
2021/12/10 09:55:14;;;;;;;13.37;5.57;;;4.60;99.90;;;;;;5076445;28;20297;-69
2021/12/10 09:57:41;;;;;;;10.80;6.17;;;4.70;99.90;;;;;;5073750;28;20198;-70
2021/12/10 10:00:18;;;;;;;10.07;6.00;;;4.70;99.90;;;;;;5076685;28;20721;-69
2021/12/10 10:02:46;;;;;;;11.03;6.13;;;4.70;99.90;;;;;;5077649;28;20267;-69
2021/12/10 10:05:14;;;;;;;10.70;6.00;;;4.70;99.90;;;;;;5082488;28;20714;-69
2021/12/10 10:07:41;;;;;;;10.50;5.63;;;4.80;99.90;;;;;;5078668;28;20658;-70
2021/12/10 10:10:13;;;;;;;9.00;5.03;;;4.80;99.90;;;;;;5080333;28;20678;-70
2021/12/10 10:12:43;;;;;;;9.33;5.10;;;4.80;99.90;;;;;;5079690;28;20209;-69
2021/12/10 10:15:16;;;;;;;10.17;5.60;;;4.90;99.90;;;;;;5080434;28;20201;-70
2021/12/10 10:17:43;;;;;;;12.17;5.63;;;4.90;99.90;;;;;;5079133;28;20262;-70
2021/12/10 10:20:15;;;;;;;9.87;5.90;;;5.00;99.90;;;;;;5080828;28;20233;-69
2021/12/10 10:22:44;;;;;;;10.80;6.23;;;5.00;99.90;;;;;;5077487;28;20797;-69
2021/12/10 10:25:12;;;;;;;11.30;6.57;;;5.00;99.90;;;;;;5081353;28;20563;-69
2021/12/10 10:27:42;;;;;;;11.20;6.40;;;5.00;99.90;;;;;;5075930;28;20198;-69
2021/12/10 10:30:16;;;;;;;12.40;6.40;;;5.00;99.90;;;;;;5076091;28;20216;-70
2021/12/10 10:32:46;;;;;;;13.87;7.93;;;5.00;99.90;;;;;;5075846;28;20214;-70
2021/12/10 10:35:21;;;;;;;13.07;6.67;;;5.00;99.90;;;;;;5081931;28;20212;-70
2021/12/10 10:37:48;;;;;;;12.70;6.57;;;5.00;99.90;;;;;;5074387;28;20201;-69
2021/12/10 10:40:20;;;;;;;13.30;6.93;;;5.00;99.90;;;;;;5079262;28;20210;-69
2021/12/10 10:42:48;;;;;;;15.47;7.33;;;5.00;99.90;;;;;;5076983;28;20233;-70
2021/12/10 10:45:20;;;;;;;16.17;6.97;;;5.20;99.90;;;;;;5077613;28;20203;-70
2021/12/10 10:47:48;;;;;;;13.87;6.47;;;5.20;99.90;;;;;;5079686;28;20656;-69
2021/12/10 10:50:21;;;;;;;14.97;6.80;;;5.20;99.90;;;;;;5076480;28;20226;-70
2021/12/10 10:52:51;;;;;;;12.80;6.97;;;5.30;99.90;;;;;;5078954;28;20221;-69
2021/12/10 10:55:23;;;;;;;14.17;7.13;;;5.20;99.90;;;;;;5076149;28;20287;-70
2021/12/10 10:57:55;;;;;;;10.90;6.50;;;5.30;99.90;;;;;;5072569;28;20616;-70
2021/12/10 11:00:33;;;;;;;14.73;7.47;;;5.40;99.90;;;;;;5073816;28;20203;-69
2021/12/10 11:03:04;;;;;;;14.70;7.63;;;5.20;99.90;;;;;;5073410;28;20225;-70
2021/12/10 11:05:34;;;;;;;12.87;7.50;;;5.10;99.90;;;;;;5072120;28;20438;-69
2021/12/10 11:08:04;;;;;;;14.40;7.47;;;5.10;99.90;;;;;;5074347;28;20493;-70
2021/12/10 11:10:35;;;;;;;16.03;7.80;;;5.20;99.90;;;;;;5073737;28;20214;-69
2021/12/10 11:13:17;;;;;;;14.93;7.80;;;5.20;99.90;;;;;;5073916;28;20198;-70
2021/12/10 11:16:00;;;;;;;12.50;7.30;;;5.20;99.90;;;;;;5071911;28;20206;-69
2021/12/10 11:18:30;;;;;;;13.73;7.47;;;5.30;99.90;;;;;;5073717;28;20198;-69
2021/12/10 11:20:59;;;;;;;12.03;6.83;;;5.30;99.90;;;;;;5073168;28;20303;-69
2021/12/10 11:23:28;;;;;;;5.20;3.20;;;5.40;99.90;;;;;;5073697;28;20647;-69
2021/12/10 11:25:56;;;;;;;5.17;2.97;;;5.40;99.90;;;;;;5072885;28;20699;-70
2021/12/10 11:28:26;;;;;;;4.47;2.63;;;5.50;99.90;;;;;;5073403;28;20652;-70
2021/12/10 11:31:02;;;;;;;4.03;2.70;;;5.50;99.90;;;;;;5072783;28;20199;-70
2021/12/10 11:33:32;;;;;;;2.67;2.27;;;5.50;99.90;;;;;;5072485;28;20241;-70
2021/12/10 11:36:05;;;;;;;5.83;2.70;;;5.40;98.20;;;;;;5073431;28;20206;-69
2021/12/10 11:38:34;;;;;;;3.80;2.77;;;5.50;99.90;;;;;;5073292;28;20214;-72
2021/12/10 11:41:05;;;;;;;3.87;2.50;;;5.40;99.50;;;;;;5072377;28;20203;-65
2021/12/10 11:43:56;;;;;;;4.07;2.60;;;5.40;98.60;;;;;;5072375;28;20234;-65
2021/12/10 11:49:21;;;;;;;4.03;2.30;;;5.40;98.70;;;;;;5073718;28;20605;-65
2021/12/10 11:51:55;;;;;;;2.63;2.23;;;5.50;99.00;;;;;;5072240;28;20259;-65
2021/12/10 11:54:27;;;;;;;4.90;2.80;;;5.40;96.90;;;;;;5072976;28;20202;-65
2021/12/10 11:56:58;;;;;;;2.30;2.10;;;5.50;98.80;;;;;;5072545;28;20651;-65
2021/12/10 11:59:28;;;;;;;3.90;2.30;;;5.50;98.60;;;;;;5073339;28;20649;-65
2021/12/10 12:01:59;;;;;;;5.00;2.10;;;5.50;97.90;;;;;;5072094;28;20252;-65
2021/12/10 12:04:29;;;;;;;1.90;1.80;;;5.50;97.90;;;;;;5072168;28;20230;-65
2021/12/10 12:07:35;;;;;;;1.80;1.70;;;5.50;97.40;;;;;;5072619;28;20303;-65
2021/12/10 12:10:19;;;;;;;2.70;2.20;;;5.40;95.40;;;;;;5026010;28;20254;-65
2021/12/10 12:12:49;;;;;;;2.53;2.20;;;5.60;97.50;;;;;;5036146;28;20247;-65
2021/12/10 12:15:21;;;;;;;4.30;2.00;;;5.70;97.20;;;;;;5051010;28;20198;-65
2021/12/10 12:17:50;;;;;;;2.97;2.03;;;5.60;94.00;;;;;;5072461;28;20206;-65
2021/12/10 12:20:38;;;;;;;1.90;1.70;;;5.60;93.50;;;;;;5071455;28;20243;-65
2021/12/10 12:25:59;;;;;;;6.03;3.80;;;5.60;93.20;;;;;;5064243;28;20332;-65
2021/12/10 12:28:28;;;;;;;3.33;2.70;;;5.80;95.60;;;;;;5076198;28;20267;-65
2021/12/10 12:30:59;;;;;;;3.63;2.30;;;5.80;95.10;;;;;;5061865;28;20198;-65
2021/12/10 12:33:28;;;;;;;2.50;2.20;;;5.80;95.50;;;;;;5065793;28;20210;-65
2021/12/10 12:35:56;;;;;;;3.43;2.67;;;5.80;95.80;;;;;;5074510;28;20194;-65
2021/12/10 12:38:30;;;;;;;4.63;2.27;;;5.70;95.50;;;;;;5077896;28;20244;-65
2021/12/10 12:41:17;;;;;;;4.20;2.30;;;5.80;95.10;;;;;;5073128;28;20717;-65
2021/12/10 12:43:47;;;;;;;3.03;2.10;;;5.80;94.40;;;;;;5067828;28;20226;-65
2021/12/10 12:46:15;;;;;;;2.57;2.27;;;5.80;94.30;;;;;;5079251;28;20206;-65
2021/12/10 12:49:01;;;;;;;2.57;2.00;;;5.80;92.50;;;;;;5073997;28;20252;-65
2021/12/10 12:51:29;;;;;;;2.40;2.00;;;6.00;93.40;;;;;;5077494;28;20207;-65
2021/12/10 12:53:59;;;;;;;3.43;2.00;;;6.20;94.00;;;;;;5073957;28;20251;-65
2021/12/10 12:56:30;;;;;;;3.23;2.40;;;6.10;94.10;;;;;;5076696;28;20203;-65
2021/12/10 12:59:05;;;;;;;5.53;2.93;;;6.00;92.70;;;;;;5072456;28;20233;-65
2021/12/10 13:01:36;;;;;;;3.07;2.33;;;5.90;92.30;;;;;;5074324;28;20201;-65
2021/12/10 13:04:09;;;;;;;2.20;2.00;;;6.00;93.00;;;;;;5080620;28;20276;-65
2021/12/10 13:06:44;;;;;;;6.47;2.27;;;6.10;92.20;;;;;;5072845;28;20232;-65
2021/12/10 13:09:17;;;;;;;4.33;2.03;;;6.40;90.20;;;;;;5077871;28;20220;-65
2021/12/10 13:11:53;;;;;;;2.60;2.10;;;7.10;90.10;;;;;;5082487;28;20197;-65
2021/12/10 13:14:22;;;;;;;4.40;2.33;;;7.90;85.60;;;;;;5077040;28;20205;-66